Terminal Aerodrome Forecast
Issued by NWS Portland, OR

Current Version | Previous Version | Text Only | Print | Product List | Glossary On
Versions: 1 2 3 4 5 6 7 8 9 10 11 12 13 14 15 16 17
000
FTUS46 KPQR 201725
TAFEUG
TAF
KEUG 201725Z 2018/2118 VRB03KT P6SM SCT120 SCT200
     FM202300 24006KT P6SM FEW060 BKN100
     FM210800 19013KT P6SM -RA SCT040 OVC070
     FM211200 26006KT P6SM VCSH SCT025 BKN050=

USA.gov is the U.S. government's official web portal to all federal, state and local government web resources and services.